Date,TemperatureHighF,TemperatureAvgF,TemperatureLowF,DewpointHighF,DewpointAvgF,DewpointLowF,HumidityHigh,HumidityAvg,HumidityLow,PressureMaxIn,PressureMinIn,WindSpeedMaxMPH,WindSpeedAvgMPH,GustSpeedMaxMPH,PrecipitationSumIn
2012-1-1,44,35,27,39,31,23,91,84,69,29.78,29.33,14,1,0,0.07
2012-1-2,28,24,20,25,20,16,90,87,83,30.08,29.77,7,0,7,0.00
2012-1-3,27,20,16,18,14,8,87,76,60,30.18,29.92,5,0,0,0.00
2012-1-4,37,28,18,28,20,10,82,73,58,29.95,29.69,10,0,0,0.08
2012-1-5,41,33,24,33,27,21,91,77,59,29.82,29.54,11,0,0,0.23
2012-1-6,50,42,38,36,33,31,84,71,58,29.54,29.46,6,0,0,0.08
2012-1-7,42,36,27,34,28,23,87,75,63,30.02,29.51,10,0,0,0.00
2012-1-8,39,30,24,28,25,22,93,80,60,30.18,30.02,5,0,4,0.00
2012-1-9,41,32,24,29,25,22,94,76,55,30.09,29.75,10,0,10,0.01
2012-1-10,47,36,28,33,29,25,95,78,56,29.87,29.63,6,0,6,0.00
2012-1-11,46,38,30,35,31,27,92,76,54,29.63,29.26,6,0,6,0.02
2012-1-12,38,31,17,36,28,14,93,89,85,29.26,29.13,10,0,3,0.06
2012-1-13,28,22,18,26,19,15,94,90,87,29.83,29.16,10,0,0,0.00
2012-1-14,22,16,6,15,11,1,88,81,67,30.07,29.83,4,0,0,0.00
2012-1-15,24,12,0,16,6,-5,88,75,64,30.25,29.97,12,1,0,0.00
2012-1-16,45,34,22,40,29,16,96,82,68,29.97,29.50,8,1,0,0.64
2012-1-17,42,39,33,41,39,32,98,97,96,29.50,29.28,14,0,0,0.28
2012-1-18,24,21,18,22,15,12,94,78,68,30.09,29.75,7,0,7,0.00
2012-1-19,26,19,12,23,14,7,91,82,75,29.98,29.59,11,0,11,0.00
2012-1-20,15,11,4,11,7,-1,86,82,73,30.08,29.88,3,0,3,0.00
2012-1-21,22,16,10,12,9,6,86,76,62,30.08,29.87,7,0,7,0.00
2012-1-22,40,26,14,40,24,7,98,90,77,30.01,29.40,13,3,13,0.01
2012-1-23,44,38,30,44,36,22,98,93,74,29.68,29.20,17,1,17,0.64
2012-1-24,32,29,24,25,23,20,90,78,74,30.15,29.68,9,0,9,0.00
2012-1-25,32,28,22,28,24,20,93,86,76,30.17,29.92,10,0,10,0.00
2012-1-26,35,32,30,33,30,27,95,93,87,29.92,29.38,5,0,3,0.31
2012-1-27,39,34,30,33,29,24,96,81,61,29.78,29.39,11,0,0,0.01
2012-1-28,34,30,26,31,24,15,94,79,56,29.92,29.58,16,1,0,0.07
2012-1-29,31,26,18,28,21,13,90,80,72,30.05,29.74,14,0,0,0.00
2012-1-30,46,33,15,35,24,11,88,73,56,30.05,29.65,12,1,0,0.19
2012-1-31,54,49,44,47,40,34,90,71,57,29.70,29.60,14,1,0,0.02
2012-2-1,50,39,35,47,35,30,93,85,77,29.96,29.63,6,0,0,0.01
2012-2-2,42,36,29,34,31,27,90,83,70,30.20,29.95,4,0,0,0.00
2012-2-3,38,34,29,36,32,26,96,91,80,30.28,30.16,7,0,0,0.00
2012-2-4,41,35,31,33,30,27,91,81,69,30.17,29.96,7,0,0,0.01
2012-2-5,44,32,23,36,26,20,95,82,59,30.09,29.97,4,0,0,0.00
2012-2-6,34,29,25,31,26,23,95,89,81,30.03,29.92,7,0,0,0.01
2012-2-7,36,32,29,32,28,24,93,84,70,30.15,29.98,3,0,0,0.00
2012-2-8,35,29,22,24,20,17,82,69,56,30.16,30.09,8,0,0,0.00
2012-2-9,34,26,19,20,18,15,90,74,51,30.09,29.92,11,0,0,0.00
2012-2-10,34,28,14,30,23,9,90,80,74,29.92,29.64,14,1,0,0.00
2012-2-11,23,16,10,16,8,3,80,72,61,30.15,29.86,13,1,0,0.00
2012-2-12,30,24,19,16,14,11,75,65,51,30.09,30.00,15,0,0,0.02
2012-2-13,34,25,14,24,12,7,84,59,37,30.00,29.73,10,0,0,0.02
2012-2-14,34,30,27,29,27,24,92,87,80,29.83,29.64,5,0,0,0.06
2012-2-15,40,36,32,37,32,28,95,85,75,29.95,29.79,10,1,0,0.23
2012-2-16,42,37,29,40,34,26,97,89,70,29.91,29.73,11,0,0,0.14
2012-2-17,46,36,25,32,26,21,91,70,42,29.97,29.78,9,0,0,0.01
2012-2-18,40,32,24,32,23,16,90,70,46,30.02,29.79,17,1,0,0.00
2012-2-19,36,26,20,19,17,15,83,69,48,30.03,29.94,9,0,0,0.00
2012-2-20,40,29,18,24,20,15,91,69,48,30.15,29.80,11,1,0,0.00
2012-2-21,41,36,33,38,31,24,93,82,63,29.80,29.42,11,1,0,0.09
2012-2-22,37,34,31,34,31,28,95,90,84,29.49,29.23,5,0,0,0.18
2012-2-23,35,32,29,35,31,28,99,96,95,29.40,29.25,7,0,0,0.09
2012-2-24,35,33,31,34,32,30,97,97,94,29.58,29.12,12,0,0,0.25
2012-2-25,30,25,16,25,20,13,93,84,72,30.15,29.67,1,0,11,0.04
2012-2-26,43,36,13,28,24,10,91,62,51,30.17,29.85,16,2,16,0.22
2012-2-27,40,33,24,27,23,20,84,68,56,30.29,29.85,13,0,13,0.01
2012-2-28,42,33,21,32,24,18,93,72,51,30.30,29.73,11,1,13,0.04
2012-2-29,64,45,35,54,35,24,99,74,25,29.77,29.19,19,2,19,0.72
2012-3-1,39,36,33,32,31,28,86,80,76,29.65,29.38,11,0,13,0.00
2012-3-2,45,37,33,44,34,29,95,88,76,29.64,28.95,17,1,17,0.23
2012-3-3,34,31,28,32,25,21,92,77,62,29.60,29.30,15,1,15,0.02
2012-3-4,33,30,26,28,24,23,88,81,69,29.73,29.58,9,0,13,0.03
2012-3-5,26,25,24,23,22,20,88,87,85,29.78,29.72,6,0,13,0.00
2012-3-6,66,54,29,38,33,22,75,45,32,30.13,29.75,18,2,18,0.01
2012-3-7,66,59,52,47,38,27,58,46,36,29.86,29.63,18,2,18,0.00
2012-3-8,63,44,31,54,36,23,92,75,54,30.00,29.56,17,1,17,0.36
2012-3-9,37,31,24,26,18,14,73,59,47,30.36,29.96,15,1,15,0.00
2012-3-10,54,37,21,27,20,15,81,52,27,30.34,30.05,14,1,14,0.00
2012-3-11,67,52,32,38,29,24,77,45,23,30.11,29.88,7,0,14,0.00
2012-3-12,69,57,49,58,50,37,96,80,53,29.91,29.52,14,1,14,0.34
2012-3-13,64,53,44,50,32,22,97,50,22,29.90,29.65,9,0,14,0.00
2012-3-14,80,63,42,58,46,25,82,55,36,29.89,29.73,11,1,14,0.00
2012-3-15,81,69,62,63,59,56,90,72,44,29.79,29.71,6,0,0,0.02
2012-3-16,79,66,54,64,56,51,96,74,48,29.87,29.77,7,0,0,0.01
2012-3-17,77,64,53,58,54,50,95,70,43,29.93,29.81,14,1,0,0.00
2012-3-18,74,65,57,60,56,54,92,74,50,29.89,29.78,8,0,0,0.02
2012-3-19,80,67,56,63,58,53,94,73,49,29.83,29.75,6,0,0,0.00
2012-3-20,83,71,60,58,54,50,80,58,32,29.87,29.75,9,1,0,0.00
2012-3-21,85,72,61,58,54,51,74,55,32,29.92,29.81,5,0,0,0.00
2012-3-22,83,70,60,60,55,53,81,61,37,29.90,29.79,7,0,0,0.00
2012-3-23,66,60,52,62,58,50,96,92,81,29.82,29.59,5,0,0,0.75
2012-3-24,63,56,52,58,53,49,98,90,73,29.68,29.55,5,0,0,0.00
2012-3-25,70,56,46,56,48,37,93,78,53,29.89,29.68,9,1,0,0.00
2012-3-26,51,43,35,39,28,21,79,56,34,30.17,29.89,12,1,0,0.00
2012-3-27,60,47,34,42,27,16,65,48,32,30.13,29.62,16,2,0,0.00
2012-3-28,64,57,42,51,42,34,88,60,39,29.80,29.55,16,1,0,0.00
2012-3-29,56,44,36,37,33,29,86,68,39,29.93,29.80,9,0,0,0.00
2012-3-30,45,42,38,44,38,32,94,85,69,29.80,29.51,13,1,0,0.25
2012-3-31,50,41,36,40,36,33,93,83,63,29.79,29.67,6,0,0,0.01
2012-4-1,66,52,40,55,45,36,89,78,63,29.69,29.46,7,0,0,0.00
2012-4-2,61,51,43,45,38,33,82,62,40,29.78,29.56,12,2,0,0.00
2012-4-3,76,56,46,56,42,33,76,61,44,29.74,29.56,10,1,0,0.00
2012-4-4,64,52,42,46,36,25,85,57,25,29.75,29.63,11,1,0,0.00
2012-4-5,55,45,37,35,31,26,82,59,38,29.92,29.69,12,1,0,0.00
2012-4-6,59,44,31,33,26,21,70,52,27,30.10,29.92,7,0,0,0.00
2012-4-7,66,50,33,40,27,18,86,49,17,30.12,29.90,10,0,0,0.00
2012-4-8,61,53,44,45,34,22,85,53,24,30.00,29.87,16,1,0,0.01
2012-4-9,60,50,42,42,32,22,89,55,26,29.89,29.69,12,1,0,0.06
2012-4-10,42,36,28,28,23,19,74,58,48,29.91,29.75,12,1,0,0.00
2012-4-11,52,39,28,35,28,21,90,65,47,30.06,29.89,14,1,0,0.00
2012-4-12,59,43,29,38,29,25,94,62,32,30.10,29.96,7,0,0,0.00
2012-4-13,64,50,33,34,30,26,86,50,25,30.03,29.84,7,0,0,0.00
2012-4-14,63,57,50,56,48,32,93,74,48,29.84,29.66,11,0,0,0.32
2012-4-15,74,66,57,64,59,55,96,79,61,29.66,29.47,12,0,0,0.22
2012-4-16,69,57,46,61,48,37,95,74,57,29.97,29.36,20,1,0,0.35
2012-4-17,56,46,35,39,35,32,93,69,46,30.17,29.97,9,0,0,0.00
2012-4-18,68,52,35,45,37,29,82,59,37,30.11,29.75,7,0,0,0.00
2012-4-19,77,64,54,53,47,40,74,56,28,29.77,29.54,7,0,0,0.00
2012-4-20,64,52,39,54,44,38,95,77,56,29.72,29.43,10,0,0,0.24
2012-4-21,55,44,34,38,32,21,94,66,27,29.81,29.72,14,1,0,0.00
2012-4-22,52,43,36,34,28,23,74,56,36,29.83,29.77,17,1,0,0.00
2012-4-23,55,44,33,34,25,16,77,51,26,29.82,29.54,18,1,0,0.00
2012-4-24,60,48,35,34,29,23,78,51,25,29.54,29.48,14,1,0,0.00
2012-4-25,52,47,40,50,39,27,93,74,53,29.58,29.46,7,0,0,0.21
2012-4-26,55,48,36,50,40,22,93,74,43,29.94,29.39,16,1,0,0.00
2012-4-27,55,43,28,32,23,17,78,48,25,30.08,29.92,7,0,0,0.00
2012-4-28,46,44,40,40,36,31,90,74,58,30.02,29.86,9,1,0,0.22
2012-4-29,62,49,36,42,35,31,87,63,32,30.08,29.91,10,1,0,0.20
2012-4-30,62,53,42,61,49,35,95,87,64,29.91,29.65,9,0,0,0.46
2012-5-1,66,58,51,58,53,49,97,86,68,29.84,29.66,5,0,0,0.14
2012-5-2,81,68,58,68,61,57,98,80,54,29.73,29.61,12,0,0,0.00
2012-5-3,86,74,63,69,64,60,94,72,51,29.74,29.62,14,0,0,0.05
2012-5-4,80,68,55,67,61,52,95,78,53,29.74,29.60,10,0,0,0.05
2012-5-5,72,65,56,62,59,53,95,83,66,29.83,29.69,7,0,0,0.00
2012-5-6,75,65,55,58,51,36,88,61,36,29.85,29.64,6,0,0,0.00
2012-5-7,64,56,48,62,51,29,98,86,29,29.71,29.59,5,0,0,0.62
2012-5-8,70,56,47,57,48,43,97,76,43,29.66,29.61,6,0,0,0.00
2012-5-9,62,52,43,50,44,34,93,74,53,29.72,29.61,12,0,0,0.00
2012-5-10,64,52,38,44,36,31,95,58,30,29.84,29.71,9,0,9,0.00
2012-5-11,75,57,38,49,39,32,95,59,22,29.95,29.84,8,0,8,0.00
2012-5-12,67,60,53,57,50,43,82,69,52,30.02,29.90,4,0,4,0.00
2012-5-13,69,58,50,58,49,36,91,73,45,30.00,29.88,7,0,7,0.00
2012-5-14,75,61,49,55,41,34,75,49,24,29.90,29.79,5,0,5,0.00
2012-5-15,82,65,47,52,45,39,85,52,25,29.79,29.61,7,0,7,0.00
2012-5-16,67,59,49,54,40,30,82,51,29,29.92,29.61,13,1,0,0.00
2012-5-17,72,58,44,47,38,32,72,49,27,29.98,29.85,6,0,0,0.00
2012-5-18,81,64,49,48,42,36,66,46,23,29.91,29.79,4,0,0,0.00
2012-5-19,87,70,53,63,51,43,77,52,30,29.88,29.79,5,0,0,0.00
2012-5-20,90,75,62,66,56,50,80,54,28,29.88,29.71,10,0,0,0.01
2012-5-21,67,59,51,61,53,45,93,80,64,29.89,29.77,9,0,0,0.21
2012-5-22,71,57,46,55,46,41,87,67,42,29.85,29.72,9,0,0,0.00
2012-5-23,81,63,46,56,49,41,95,64,34,29.73,29.57,7,0,0,0.00
2012-5-24,86,74,60,63,54,44,90,54,27,29.64,29.44,7,0,0,0.00
2012-5-25,80,73,62,62,55,44,73,55,36,29.90,29.51,9,0,0,0.00
2012-5-26,84,71,62,62,54,44,65,55,43,30.01,29.83,10,0,0,0.00
2012-5-27,94,79,65,68,60,52,69,53,34,29.86,29.65,6,0,0,0.00
2012-5-28,92,80,68,68,61,53,84,55,32,29.66,29.48,9,0,0,0.00
2012-5-29,84,74,60,62,52,41,69,49,24,29.63,29.48,9,0,0,0.00
2012-5-30,72,60,49,53,47,44,90,64,42,29.73,29.62,7,0,0,0.00
2012-5-31,60,51,46,51,46,42,95,85,70,29.79,29.60,10,0,0,0.32
2012-6-1,52,49,46,51,48,43,99,94,86,29.62,29.49,10,0,0,0.46
2012-6-2,73,59,45,55,47,41,97,69,33,29.57,29.50,12,0,0,0.02
2012-6-3,77,65,53,58,52,44,94,65,34,29.61,29.55,9,0,0,0.00
2012-6-4,76,64,54,57,51,46,84,64,37,29.69,29.57,10,0,0,0.00
2012-6-5,72,62,52,54,49,44,88,64,41,29.80,29.68,11,0,0,0.00
2012-6-6,76,62,48,54,49,44,95,66,34,29.86,29.80,7,0,0,0.00
2012-6-7,80,64,49,57,49,43,93,61,32,29.91,29.84,9,0,0,0.00
2012-6-8,84,67,49,57,49,43,90,57,27,29.88,29.71,5,0,0,0.00
2012-6-9,88,74,61,58,53,48,73,50,27,29.76,29.65,9,0,0,0.00
2012-6-10,91,76,61,64,57,52,79,55,29,29.78,29.68,9,0,0,0.00
2012-6-11,85,75,65,68,64,58,85,69,54,29.69,29.57,9,0,0,0.00
2012-6-12,73,68,55,65,52,43,81,58,38,29.91,29.60,13,0,0,0.00
2012-6-13,75,61,48,53,45,35,90,60,25,29.99,29.89,4,0,0,0.00
2012-6-14,85,68,52,52,46,39,81,51,21,29.97,29.83,7,0,0,0.00
2012-6-15,90,74,58,57,52,45,80,49,27,29.91,29.83,4,0,0,0.00
2012-6-16,91,76,62,67,60,52,82,60,37,29.88,29.65,9,0,0,0.00
2012-6-17,80,71,66,70,63,51,96,76,38,29.69,29.60,7,0,0,0.26
2012-6-18,90,77,62,73,65,59,94,70,48,29.63,29.49,12,0,0,0.00
2012-6-19,93,82,74,71,66,62,69,58,43,29.76,29.63,11,0,0,0.00
2012-6-20,92,81,70,66,62,59,80,54,36,29.84,29.67,13,0,0,0.00
2012-6-21,86,74,64,71,64,61,92,71,53,29.72,29.66,10,0,0,0.30
2012-6-22,80,70,60,66,58,50,96,70,38,29.78,29.71,7,0,0,0.00
2012-6-23,85,70,57,62,56,48,93,65,28,29.82,29.76,4,0,0,0.00
2012-6-24,88,75,64,63,59,55,82,59,35,29.80,29.68,10,0,0,0.00
2012-6-25,78,68,59,61,53,41,82,59,29,29.84,29.71,11,0,0,0.00
2012-6-26,59,55,52,55,50,48,93,85,71,29.87,29.81,0,0,0,0.00
2012-6-27,90,74,56,55,52,48,90,51,27,29.79,29.59,1,0,7,0.00
2012-6-28,99,90,72,74,70,52,73,53,40,29.61,29.50,7,0,7,0.00
2012-6-29,86,76,66,72,66,55,93,74,38,29.78,29.53,14,0,14,0.17
2012-6-30,86,76,67,72,68,64,96,78,50,29.69,29.56,10,0,10,0.22
2012-7-1,91,76,68,76,69,65,96,81,44,29.80,29.63,10,0,10,0.18
2012-7-2,92,78,66,75,69,64,96,76,49,29.79,29.69,4,0,4,0.00
2012-7-3,93,82,73,74,70,64,85,66,45,29.71,29.59,6,0,6,0.00
2012-7-4,99,86,75,75,71,61,90,64,32,29.66,29.60,9,0,9,0.00
2012-7-5,100,86,75,74,70,61,89,62,31,29.71,29.63,7,0,7,0.00
2012-7-6,101,87,75,77,73,68,91,66,38,29.72,29.67,6,0,6,0.00
2012-7-7,98,85,73,75,71,66,88,66,36,29.74,29.68,9,0,9,0.01
2012-7-8,87,76,67,69,63,48,89,68,28,29.83,29.73,7,0,7,0.00
2012-7-9,90,74,61,63,58,55,93,63,34,29.84,29.77,9,0,9,0.00
2012-7-10,88,73,60,62,56,46,88,61,25,29.88,29.81,9,0,9,0.00
2012-7-11,88,74,62,59,54,47,79,53,27,29.93,29.85,7,0,7,0.00
2012-7-12,91,80,60,57,52,47,73,41,25,29.91,29.82,7,0,4,0.06
2012-7-13,91,78,66,68,61,54,82,59,34,29.87,29.78,3,0,0,0.00
2012-7-14,94,76,69,70,66,59,95,73,33,29.85,29.74,9,0,0,0.69
2012-7-15,89,76,67,73,67,63,97,76,46,29.84,29.75,8,0,0,0.00
2012-7-16,94,80,67,73,67,60,96,69,41,29.80,29.63,6,0,0,0.00
2012-7-17,97,84,74,74,69,64,86,63,35,29.64,29.55,9,0,0,0.00
2012-7-18,91,80,75,75,72,68,92,76,55,29.71,29.60,5,0,0,0.00
2012-7-19,76,72,69,72,69,68,97,92,76,29.73,29.65,4,0,0,1.32
2012-7-20,82,72,65,68,62,58,87,72,48,29.84,29.69,2,0,13,0.04
2012-7-21,84,77,60,67,63,58,96,64,44,29.89,29.81,5,0,5,0.01
2012-7-22,86,74,68,72,67,64,89,80,55,29.89,29.81,4,0,6,0.00
2012-7-23,92,81,72,76,70,66,90,72,48,29.81,29.64,6,0,6,0.05
2012-7-24,80,75,69,73,70,63,95,85,66,29.78,29.62,7,0,7,0.77
2012-7-25,89,76,66,78,68,59,92,76,60,29.74,29.39,4,0,0,0.02
2012-7-26,82,77,69,73,70,66,93,79,60,29.54,29.34,9,0,0,0.32
2012-7-27,78,68,65,72,67,64,97,94,70,29.71,29.52,1,0,6,0.26
2012-7-28,82,72,62,65,60,53,94,68,39,29.88,29.72,8,0,8,0.00
2012-7-29,83,70,57,65,59,48,97,72,31,29.90,29.78,4,0,4,0.00
2012-7-30,86,75,65,70,65,59,91,71,43,29.79,29.65,4,0,4,0.00
2012-7-31,83,74,65,72,66,62,95,77,56,29.76,29.63,11,0,11,0.37
2012-8-1,83,71,61,66,61,58,96,75,45,29.75,29.65,5,0,0,0.00
2012-8-2,88,73,63,74,65,59,94,77,44,29.69,29.61,4,0,0,0.00
2012-8-3,90,77,66,72,67,62,95,74,40,29.68,29.62,2,0,0,0.00
2012-8-4,88,76,68,77,70,66,95,82,62,29.71,29.57,14,0,0,0.23
2012-8-5,79,72,62,71,67,50,97,87,47,29.93,29.63,8,0,0,0.41
2012-8-6,81,67,55,62,56,52,96,72,40,29.97,29.80,5,0,0,0.00
2012-8-7,85,71,59,66,60,56,91,71,43,29.80,29.67,4,0,0,0.00
2012-8-8,85,73,65,68,64,60,92,74,43,29.75,29.68,5,0,0,0.01
2012-8-9,68,66,61,65,62,59,93,87,81,29.71,29.57,6,0,0,0.12
2012-8-10,63,60,56,61,57,53,96,92,74,29.69,29.54,10,0,0,0.26
2012-8-11,74,64,57,64,59,56,97,87,66,29.71,29.65,11,0,0,0.00
2012-8-12,71,66,63,62,60,58,90,82,66,29.79,29.76,2,0,0,0.00
2012-8-13,66,63,62,64,61,59,95,92,89,29.80,29.72,1,0,0,0.72
2012-8-14,75,66,61,68,61,59,98,84,61,29.74,29.67,1,0,0,0.05
2012-8-15,80,68,62,66,61,50,92,79,53,29.76,29.69,4,0,0,0.00
2012-8-16,70,67,63,68,63,60,95,89,76,29.73,29.57,6,0,0,0.68
2012-8-17,73,64,54,62,56,50,97,79,56,29.80,29.66,10,0,0,0.01
2012-8-18,73,59,47,56,50,44,96,74,38,29.84,29.73,4,0,0,0.00
2012-8-19,75,62,53,59,54,48,98,76,42,29.76,29.69,7,0,0,0.00
2012-8-20,74,62,55,60,56,51,96,81,52,29.78,29.72,6,0,0,0.00
2012-8-21,77,63,51,60,53,47,96,75,37,29.87,29.78,6,0,0,0.00
2012-8-22,78,70,53,61,56,50,96,61,41,29.94,29.85,4,0,4,0.00
2012-8-23,83,69,57,63,58,54,92,70,39,29.92,29.84,4,0,4,0.00
2012-8-24,86,73,61,66,61,57,90,69,43,29.87,29.79,3,0,3,0.00
2012-8-25,87,73,62,69,62,58,90,70,40,29.87,29.80,2,0,2,0.00
2012-8-26,85,72,64,71,66,61,93,81,52,29.86,29.77,2,0,2,0.08
2012-8-27,82,72,64,72,66,57,97,82,53,29.83,29.73,8,0,0,0.70
2012-8-28,81,68,57,66,59,55,95,76,50,29.92,29.82,5,0,0,0.01
2012-8-29,80,67,57,65,59,53,97,77,43,29.90,29.81,3,0,0,0.00
2012-8-30,82,68,57,66,60,55,96,76,46,29.88,29.77,6,0,0,0.01
2012-8-31,88,74,61,76,66,57,88,77,60,29.86,29.78,7,0,0,0.00
2012-9-1,80,74,70,73,70,68,95,90,78,29.85,29.74,2,0,0,0.11
2012-9-2,80,74,68,72,69,65,94,84,72,29.76,29.66,5,0,0,0.00
2012-9-3,87,76,67,74,69,64,93,80,57,29.70,29.62,0,0,0,0.00
2012-9-4,83,74,69,73,69,65,95,85,65,29.68,29.62,0,0,0,0.07
2012-9-5,78,71,66,70,66,64,96,85,67,29.68,29.55,10,0,0,0.06
2012-9-6,82,71,63,71,63,54,96,77,45,29.71,29.59,5,0,0,0.00
2012-9-7,80,66,59,67,61,56,96,86,57,29.71,29.51,6,0,0,0.17
2012-9-8,68,59,54,58,54,49,96,82,57,29.65,29.53,8,0,0,0.05
2012-9-9,71,59,51,60,53,48,97,81,52,29.91,29.63,7,0,0,0.45
2012-9-10,73,58,48,55,49,43,97,75,38,30.03,29.91,6,0,1,0.00
2012-9-11,78,63,51,60,53,48,95,72,43,30.00,29.89,9,0,0,0.00
2012-9-12,81,66,54,61,55,51,95,69,44,29.99,29.90,7,0,0,0.00
2012-9-13,79,68,58,64,58,54,88,73,53,30.06,29.95,7,0,0,0.02
2012-9-14,71,58,50,55,50,44,95,78,41,30.12,30.06,6,0,0,0.22
2012-9-15,73,58,47,56,48,45,96,75,37,30.12,29.95,4,0,0,0.00
2012-9-16,75,60,47,57,50,43,96,73,34,29.95,29.79,4,0,0,0.00
2012-9-17,75,62,51,62,55,49,93,79,57,29.80,29.50,4,0,0,0.00
2012-9-18,64,55,44,59,49,36,94,83,51,29.81,29.47,13,0,0,0.46
2012-9-19,66,54,41,46,41,38,95,66,39,29.90,29.70,9,0,0,0.00
2012-9-20,59,58,56,48,44,41,73,61,53,29.71,29.64,7,0,0,0.00
2012-9-21,66,53,46,52,48,41,93,85,42,29.73,29.57,3,0,6,0.13
2012-9-22,52,49,46,51,47,43,96,91,78,29.92,29.55,10,0,10,0.13
2012-9-23,56,47,39,45,39,34,96,77,50,30.04,29.91,9,0,1,0.00
2012-9-24,64,50,36,41,36,31,94,64,31,30.04,29.73,10,0,0,0.01
2012-9-25,70,59,50,60,49,38,90,70,53,29.74,29.63,5,0,0,0.00
2012-9-26,71,62,52,63,56,47,97,83,56,29.92,29.65,3,0,0,0.00
2012-9-27,68,56,47,57,49,43,93,78,61,29.98,29.90,3,0,0,0.00
2012-9-28,68,57,49,53,49,46,94,77,52,29.94,29.87,5,0,0,0.00
2012-9-29,69,55,44,55,46,41,97,75,42,29.91,29.74,8,0,0,0.00
2012-9-30,65,54,44,50,44,39,96,74,39,29.77,29.70,6,0,0,0.00
2012-10-1,64,54,43,51,46,40,95,76,52,29.74,29.60,6,0,0,0.00
2012-10-2,67,59,52,54,49,46,84,71,55,29.68,29.58,10,0,0,0.01
2012-10-3,61,59,57,58,56,53,95,90,77,29.83,29.67,3,0,0,0.12
2012-10-4,76,62,53,59,55,52,97,79,47,29.88,29.77,10,0,0,0.14
2012-10-5,57,48,41,54,44,38,93,86,62,29.91,29.82,5,0,0,0.06
2012-10-6,46,41,34,39,35,32,94,80,63,29.94,29.81,7,0,0,0.00
2012-10-7,45,42,36,43,38,32,94,87,78,29.96,29.89,4,0,0,0.24
2012-10-8,54,41,29,35,30,27,94,68,39,30.01,29.86,6,0,0,0.00
2012-10-9,62,49,38,44,37,29,84,63,46,29.88,29.61,13,0,0,0.00
2012-10-10,54,43,36,44,36,29,95,78,52,29.98,29.66,10,0,0,0.28
2012-10-11,61,46,32,43,34,29,90,65,37,29.99,29.85,12,0,0,0.00
2012-10-12,51,43,36,41,32,24,90,67,38,30.25,29.99,7,0,0,0.01
2012-10-13,63,49,36,62,44,28,97,81,68,30.13,29.64,10,0,0,0.54
2012-10-14,69,63,50,65,59,48,98,90,64,29.64,29.23,14,1,0,0.60
2012-10-15,50,47,38,48,43,34,96,88,69,29.78,29.48,7,0,0,0.06
2012-10-16,61,48,35,46,40,33,97,76,53,29.78,29.44,6,0,0,0.01
2012-10-17,70,60,54,55,50,46,92,72,49,29.45,29.20,14,0,0,0.24
2012-10-18,57,51,43,55,44,32,95,80,42,29.41,29.09,13,0,6,0.68
2012-10-19,49,44,43,48,43,41,96,95,92,29.40,29.27,3,0,6,0.76
2012-10-20,53,47,43,50,44,41,98,88,67,29.72,29.40,8,0,0,0.09
2012-10-21,61,48,37,48,42,34,96,81,61,29.89,29.71,4,0,0,0.00
2012-10-22,66,57,49,60,52,45,93,84,65,29.83,29.68,4,0,0,0.01
2012-10-23,68,62,59,62,59,57,94,88,76,29.75,29.67,6,0,0,0.09
2012-10-24,77,66,57,61,59,55,95,79,56,29.77,29.68,9,0,0,0.00
2012-10-25,77,67,55,60,57,48,84,71,55,29.72,29.54,15,1,0,0.00
2012-10-26,54,44,38,48,37,32,93,76,58,30.08,29.70,18,1,0,0.02
2012-10-27,51,41,35,36,32,28,86,71,46,30.08,29.98,15,1,0,0.00
2012-10-28,48,40,33,32,29,24,85,66,51,30.06,29.98,12,1,0,0.00
2012-10-29,47,38,34,29,26,23,75,63,39,30.00,29.91,18,2,0,0.00
2012-10-30,42,40,38,36,33,24,91,77,51,29.70,29.43,7,4,23,0.08
2012-10-31,42,40,38,39,36,34,91,85,80,29.58,29.45,4,1,14,0.05
2012-11-1,49,40,32,38,30,23,93,68,43,29.66,29.57,11,0,11,0.00
2012-11-2,46,39,32,35,31,28,87,73,54,29.93,29.64,12,0,12,0.00
2012-11-3,43,35,28,32,28,25,93,79,60,30.03,29.92,5,0,5,0.01
2012-11-4,43,35,27,32,28,23,88,77,59,30.02,29.97,11,0,11,0.00
2012-11-5,43,31,21,31,24,18,92,77,54,30.02,29.92,5,0,5,0.00
2012-11-6,29,27,25,25,24,22,89,88,87,29.95,29.87,2,0,3,0.00
2012-11-7,48,39,33,33,31,29,86,75,53,29.95,29.72,1,0,7,0.01
2012-11-8,46,36,27,40,31,24,95,83,68,30.03,29.93,4,0,0,0.01
2012-11-9,58,45,31,46,37,28,96,75,53,29.95,29.81,11,0,0,0.02
2012-11-10,65,58,52,52,45,41,71,62,55,29.84,29.73,10,1,0,0.00
2012-11-11,68,61,54,51,47,44,72,60,53,29.83,29.64,18,2,0,0.00
2012-11-12,61,39,32,52,31,19,91,74,49,30.11,29.64,13,0,0,0.28
2012-11-13,38,32,25,25,21,19,81,65,49,30.32,30.10,8,0,0,0.01
2012-11-14,40,30,24,26,23,20,87,75,52,30.37,30.22,9,0,0,0.00
2012-11-15,44,32,24,30,26,22,93,77,51,30.22,30.14,3,0,0,0.00
2012-11-16,51,34,25,34,26,22,92,73,42,30.29,30.17,4,0,4,0.00
2012-11-17,51,38,27,34,29,24,93,70,48,30.38,30.28,7,0,7,0.00
2012-11-18,56,43,34,35,31,28,86,63,36,30.29,30.17,6,0,6,0.00
2012-11-19,56,45,35,37,33,29,78,64,45,30.17,29.93,5,0,5,0.00
2012-11-20,52,47,44,44,40,35,89,75,65,29.96,29.86,3,0,3,0.01
2012-11-21,53,42,36,46,39,34,97,88,73,30.05,29.94,5,0,5,0.00
2012-11-22,59,42,36,49,39,35,98,90,56,29.95,29.59,6,0,6,0.03
2012-11-23,54,35,32,48,25,20,84,68,63,29.93,29.57,13,1,7,0.01
2012-11-24,32,30,26,24,21,18,73,70,65,30.00,29.85,10,0,0,0.00
2012-11-25,40,31,27,28,24,19,87,73,61,29.87,29.66,6,0,0,0.00
2012-11-26,37,32,27,31,24,21,92,75,55,30.11,29.81,8,0,0,0.00
2012-11-27,36,30,24,23,20,13,74,64,54,30.19,30.07,5,0,0,0.00
2012-11-28,41,32,25,28,22,13,79,65,56,30.17,30.05,6,0,6,0.00
2012-11-29,48,37,25,32,27,19,81,66,44,30.12,29.94,11,0,11,0.00
2012-11-30,50,42,37,34,31,29,76,64,52,29.97,29.86,4,0,4,0.00
2012-12-1,58,46,32,50,40,29,95,79,66,29.98,29.75,9,1,9,0.00
2012-12-2,59,55,48,56,50,45,95,82,63,29.86,29.68,5,0,9,0.12
2012-12-3,63,57,50,61,55,48,98,94,76,29.86,29.64,12,1,12,0.01
2012-12-4,63,50,40,57,43,32,95,80,54,30.00,29.67,16,0,16,0.77
2012-12-5,44,33,28,33,24,20,77,69,56,30.22,29.98,9,0,9,0.00
2012-12-6,40,34,28,36,28,22,88,77,70,30.10,29.71,10,1,10,0.01
2012-12-7,44,42,39,43,40,36,96,93,88,29.76,29.65,2,0,3,0.07
2012-12-8,42,38,33,41,36,28,96,92,82,29.92,29.61,11,0,11,0.12
2012-12-9,41,37,33,40,34,28,97,91,82,29.93,29.48,11,1,11,0.05
2012-12-10,41,34,31,40,32,28,97,93,87,29.71,29.46,10,0,10,0.04
2012-12-11,32,29,24,29,25,22,95,86,67,29.96,29.69,6,0,6,0.05
2012-12-12,41,30,22,27,23,19,90,76,50,30.15,29.96,3,0,3,0.03
2012-12-13,45,34,25,28,25,22,90,70,44,30.14,29.95,9,0,0,0.01
2012-12-14,46,36,28,32,28,23,87,72,56,30.04,29.91,7,0,0,0.00
2012-12-15,49,42,35,48,37,29,96,83,66,29.92,29.41,13,1,0,0.10
2012-12-16,49,45,39,48,43,36,96,93,87,29.50,29.39,7,0,0,0.05
2012-12-17,40,38,36,35,34,32,90,85,76,29.53,29.43,3,0,0,0.00
2012-12-18,38,34,29,35,31,26,93,86,77,29.60,29.45,9,0,0,0.04
2012-12-19,42,38,34,38,36,33,95,89,79,29.87,29.49,9,0,0,0.01
2012-12-20,47,39,34,46,37,30,95,90,77,29.76,28.90,17,3,16,0.92
2012-12-21,36,32,31,34,28,24,95,83,74,29.86,28.94,21,3,30,0.30
2012-12-22,32,28,21,25,22,17,87,78,70,29.98,29.81,11,0,17,0.02
2012-12-23,35,26,17,28,21,14,93,81,68,29.84,29.72,7,0,17,0.01
2012-12-24,33,28,24,27,23,20,84,81,76,29.85,29.62,7,0,17,0.01
2012-12-25,32,26,19,22,20,16,90,75,62,30.10,29.83,10,0,10,0.00
2012-12-26,29,27,23,26,22,17,92,82,70,30.04,29.69,16,1,16,0.00
2012-12-27,33,26,23,26,22,18,88,83,74,29.97,29.82,9,0,9,0.03
2012-12-28,32,28,25,28,25,22,93,88,79,29.96,29.70,4,0,5,0.01
2012-12-29,31,29,27,28,26,24,92,90,85,29.95,29.65,3,0,5,0.00
2012-12-30,29,22,16,26,18,12,92,83,72,30.17,29.92,7,0,7,0.00
2012-12-31,36,30,24,27,24,19,84,77,67,30.00,29.78,4,0,5,0.00
2013-1-1,29,25,16,21,17,10,82,73,62,29.97,29.86,6,0,6,0.00